KCEF/CEF METAR and TAF weather

Enter ICAO airport designator
Station Type Date Time Source
KCEF METAR 2018/01/23 00:56 UTC NOAA

KCEF 230056Z 03005KT 5SM -RA BR SCT003 OVC010 01/01 A3020 RMK AO2A SLP235 P0004 T00140007


Station Type Date Time Source
KCEF Decoded METAR 2018/01/23 00:56 UTC NOAA

Chicopee Falls / Westover Air Force Base, MA, United States (KCEF) 42-12N 072-32W 75M
Jan 22, 2018 - 07:56 PM EST / 2018.01.23 0056 UTC
Wind: from the NNE (030 degrees) at 6 MPH (5 KT):0
Visibility: 5 mile(s):0
Sky conditions: overcast
Weather: light rain; mist
Precipitation last hour: 0.04 inches
Temperature: 34.5 F (1.4 C)
Windchill: 28 F (-2 C):1
Dew Point: 33.3 F (0.7 C)
Relative Humidity: 95%
Pressure (altimeter): 30.2 in. Hg (1022 hPa)
ob: KCEF 230056Z 03005KT 5SM -RA BR SCT003 OVC010 01/01 A3020 RMK AO2A SLP235 P0004 T00140007
cycle: 1

Station Type Date Time Source
KCEF TAF 2018/01/23 01:31 UTC NOAA

TAF
AMD KCEF 230120Z 2301/2401 13009KT 8000 -RA OVC010 620803 QNH2997INS
BECMG 2308/2309 16006KT 3200 -RA BR OVC007 WS020/20035KT 620802 520203 QNH2981INS
BECMG 2313/2314 17012KT 6000 -SHRA OVC007 WS020/20050KT 610807 550154 QNH2952INS
TEMPO 2316/2320 13012G18KT TSRA OVC007CB
BECMG 2319/2320 18012KT 6000 -SHRA OVC007 QNH2945INS
BECMG 2323/2324 23012KT 6000 -SHRA OVC010 610704 QNH2945INS TX06/2319Z TN01/2301Z


Example: see airport list